sensor_id;sensor_type;location;lat;lon;timestamp;P1;durP1;ratioP1;P2;durP2;ratioP2
11960;SDS011;6040;49.358;11.140;2022-10-29T00:01:01;6.93;;;3.20;;
11960;SDS011;6040;49.358;11.140;2022-10-29T00:03:27;8.40;;;3.80;;
11960;SDS011;6040;49.358;11.140;2022-10-29T00:05:55;8.87;;;3.70;;
11960;SDS011;6040;49.358;11.140;2022-10-29T00:08:25;13.97;;;4.03;;
11960;SDS011;6040;49.358;11.140;2022-10-29T00:10:52;7.33;;;3.50;;
11960;SDS011;6040;49.358;11.140;2022-10-29T00:13:19;8.83;;;3.70;;
11960;SDS011;6040;49.358;11.140;2022-10-29T00:15:46;8.73;;;3.30;;
11960;SDS011;6040;49.358;11.140;2022-10-29T00:18:13;8.53;;;4.30;;
11960;SDS011;6040;49.358;11.140;2022-10-29T00:20:39;11.07;;;3.73;;
11960;SDS011;6040;49.358;11.140;2022-10-29T00:23:07;8.07;;;3.53;;
11960;SDS011;6040;49.358;11.140;2022-10-29T00:25:35;9.87;;;3.33;;
11960;SDS011;6040;49.358;11.140;2022-10-29T00:28:02;6.87;;;3.23;;
11960;SDS011;6040;49.358;11.140;2022-10-29T00:30:28;6.83;;;3.30;;
11960;SDS011;6040;49.358;11.140;2022-10-29T00:32:55;8.87;;;3.40;;
11960;SDS011;6040;49.358;11.140;2022-10-29T00:35:22;7.80;;;3.27;;
11960;SDS011;6040;49.358;11.140;2022-10-29T00:37:50;8.53;;;3.60;;
11960;SDS011;6040;49.358;11.140;2022-10-29T00:40:17;5.77;;;3.43;;
11960;SDS011;6040;49.358;11.140;2022-10-29T00:42:46;6.37;;;3.50;;
11960;SDS011;6040;49.358;11.140;2022-10-29T00:45:19;11.03;;;3.80;;
11960;SDS011;6040;49.358;11.140;2022-10-29T00:47:50;7.57;;;3.50;;
11960;SDS011;6040;49.358;11.140;2022-10-29T00:50:18;9.63;;;3.43;;
11960;SDS011;6040;49.358;11.140;2022-10-29T00:52:48;5.50;;;3.00;;
11960;SDS011;6040;49.358;11.140;2022-10-29T00:55:17;9.53;;;3.47;;
11960;SDS011;6040;49.358;11.140;2022-10-29T00:57:48;6.00;;;3.23;;
11960;SDS011;6040;49.358;11.140;2022-10-29T01:00:17;9.27;;;3.63;;
11960;SDS011;6040;49.358;11.140;2022-10-29T01:02:45;8.63;;;3.27;;
11960;SDS011;6040;49.358;11.140;2022-10-29T01:05:12;9.23;;;3.43;;
11960;SDS011;6040;49.358;11.140;2022-10-29T01:07:42;12.93;;;3.40;;
11960;SDS011;6040;49.358;11.140;2022-10-29T01:10:09;7.83;;;3.00;;
11960;SDS011;6040;49.358;11.140;2022-10-29T01:12:46;5.97;;;4.07;;
11960;SDS011;6040;49.358;11.140;2022-10-29T01:15:28;6.37;;;3.33;;
11960;SDS011;6040;49.358;11.140;2022-10-29T01:18:10;8.97;;;4.03;;
11960;SDS011;6040;49.358;11.140;2022-10-29T01:29:52;5.97;;;2.80;;
11960;SDS011;6040;49.358;11.140;2022-10-29T01:32:30;7.77;;;3.03;;
11960;SDS011;6040;49.358;11.140;2022-10-29T01:35:00;10.87;;;3.43;;
11960;SDS011;6040;49.358;11.140;2022-10-29T01:37:36;8.53;;;2.97;;
11960;SDS011;6040;49.358;11.140;2022-10-29T01:40:11;7.37;;;3.00;;
11960;SDS011;6040;49.358;11.140;2022-10-29T01:42:46;8.03;;;2.80;;
11960;SDS011;6040;49.358;11.140;2022-10-29T01:45:16;5.07;;;2.70;;
11960;SDS011;6040;49.358;11.140;2022-10-29T01:47:50;6.80;;;2.90;;
11960;SDS011;6040;49.358;11.140;2022-10-29T01:50:21;4.70;;;2.50;;
11960;SDS011;6040;49.358;11.140;2022-10-29T01:52:49;9.47;;;2.77;;
11960;SDS011;6040;49.358;11.140;2022-10-29T01:55:18;6.93;;;3.23;;
11960;SDS011;6040;49.358;11.140;2022-10-29T01:57:47;6.53;;;2.80;;
11960;SDS011;6040;49.358;11.140;2022-10-29T02:00:14;9.70;;;3.03;;
11960;SDS011;6040;49.358;11.140;2022-10-29T02:02:52;6.60;;;3.00;;
11960;SDS011;6040;49.358;11.140;2022-10-29T02:05:27;6.87;;;2.90;;
11960;SDS011;6040;49.358;11.140;2022-10-29T02:08:02;6.87;;;2.53;;
11960;SDS011;6040;49.358;11.140;2022-10-29T02:10:38;6.73;;;3.07;;
11960;SDS011;6040;49.358;11.140;2022-10-29T02:13:11;10.30;;;2.80;;
11960;SDS011;6040;49.358;11.140;2022-10-29T02:15:42;5.50;;;2.70;;
11960;SDS011;6040;49.358;11.140;2022-10-29T02:18:14;12.77;;;2.70;;
11960;SDS011;6040;49.358;11.140;2022-10-29T02:20:42;10.80;;;3.03;;
11960;SDS011;6040;49.358;11.140;2022-10-29T02:23:10;10.97;;;3.40;;
11960;SDS011;6040;49.358;11.140;2022-10-29T02:25:38;7.63;;;3.07;;
11960;SDS011;6040;49.358;11.140;2022-10-29T02:28:05;7.63;;;3.47;;
11960;SDS011;6040;49.358;11.140;2022-10-29T02:30:31;6.47;;;2.87;;
11960;SDS011;6040;49.358;11.140;2022-10-29T02:32:58;7.97;;;3.03;;
11960;SDS011;6040;49.358;11.140;2022-10-29T02:35:26;9.60;;;3.13;;
11960;SDS011;6040;49.358;11.140;2022-10-29T02:37:54;7.37;;;2.83;;
11960;SDS011;6040;49.358;11.140;2022-10-29T02:40:20;6.00;;;3.47;;
11960;SDS011;6040;49.358;11.140;2022-10-29T02:42:47;6.37;;;3.47;;
11960;SDS011;6040;49.358;11.140;2022-10-29T02:45:14;6.47;;;3.23;;
11960;SDS011;6040;49.358;11.140;2022-10-29T02:47:41;7.43;;;3.37;;
11960;SDS011;6040;49.358;11.140;2022-10-29T02:50:08;9.93;;;3.87;;
11960;SDS011;6040;49.358;11.140;2022-10-29T02:52:36;7.23;;;3.00;;
11960;SDS011;6040;49.358;11.140;2022-10-29T02:55:03;9.53;;;3.20;;
11960;SDS011;6040;49.358;11.140;2022-10-29T02:57:30;11.10;;;3.10;;
11960;SDS011;6040;49.358;11.140;2022-10-29T02:59:57;10.13;;;3.17;;
11960;SDS011;6040;49.358;11.140;2022-10-29T03:02:24;10.87;;;3.43;;
11960;SDS011;6040;49.358;11.140;2022-10-29T03:04:51;7.87;;;3.23;;
11960;SDS011;6040;49.358;11.140;2022-10-29T03:07:18;4.97;;;2.90;;
11960;SDS011;6040;49.358;11.140;2022-10-29T03:09:46;6.07;;;3.60;;
11960;SDS011;6040;49.358;11.140;2022-10-29T03:12:12;5.27;;;3.20;;
11960;SDS011;6040;49.358;11.140;2022-10-29T03:14:39;6.60;;;3.37;;
11960;SDS011;6040;49.358;11.140;2022-10-29T03:17:06;12.33;;;3.87;;
11960;SDS011;6040;49.358;11.140;2022-10-29T03:19:33;7.07;;;3.23;;
11960;SDS011;6040;49.358;11.140;2022-10-29T03:22:00;4.87;;;3.27;;
11960;SDS011;6040;49.358;11.140;2022-10-29T03:24:26;7.40;;;3.07;;
11960;SDS011;6040;49.358;11.140;2022-10-29T03:26:54;5.40;;;2.67;;
11960;SDS011;6040;49.358;11.140;2022-10-29T03:29:21;5.60;;;3.40;;
11960;SDS011;6040;49.358;11.140;2022-10-29T03:31:48;7.63;;;3.40;;
11960;SDS011;6040;49.358;11.140;2022-10-29T03:34:15;7.07;;;2.80;;
11960;SDS011;6040;49.358;11.140;2022-10-29T03:36:42;4.40;;;2.57;;
11960;SDS011;6040;49.358;11.140;2022-10-29T03:39:08;6.27;;;3.23;;
11960;SDS011;6040;49.358;11.140;2022-10-29T03:41:35;6.00;;;2.90;;
11960;SDS011;6040;49.358;11.140;2022-10-29T03:44:03;8.43;;;3.60;;
11960;SDS011;6040;49.358;11.140;2022-10-29T03:46:30;5.57;;;2.67;;
11960;SDS011;6040;49.358;11.140;2022-10-29T03:48:58;2.90;;;2.57;;
11960;SDS011;6040;49.358;11.140;2022-10-29T03:51:24;4.80;;;2.80;;
11960;SDS011;6040;49.358;11.140;2022-10-29T03:53:51;10.73;;;3.00;;
11960;SDS011;6040;49.358;11.140;2022-10-29T03:56:18;5.50;;;2.93;;
11960;SDS011;6040;49.358;11.140;2022-10-29T03:58:45;5.60;;;3.03;;
11960;SDS011;6040;49.358;11.140;2022-10-29T04:01:13;6.13;;;3.00;;
11960;SDS011;6040;49.358;11.140;2022-10-29T04:03:40;7.00;;;3.00;;
11960;SDS011;6040;49.358;11.140;2022-10-29T04:06:08;7.10;;;2.97;;
11960;SDS011;6040;49.358;11.140;2022-10-29T04:08:36;6.13;;;2.93;;
11960;SDS011;6040;49.358;11.140;2022-10-29T04:11:03;6.80;;;2.80;;
11960;SDS011;6040;49.358;11.140;2022-10-29T04:13:32;6.93;;;3.30;;
11960;SDS011;6040;49.358;11.140;2022-10-29T04:15:58;9.77;;;3.63;;
11960;SDS011;6040;49.358;11.140;2022-10-29T04:18:27;5.70;;;3.07;;
11960;SDS011;6040;49.358;11.140;2022-10-29T04:20:57;4.63;;;3.50;;
11960;SDS011;6040;49.358;11.140;2022-10-29T04:23:25;6.83;;;3.90;;
11960;SDS011;6040;49.358;11.140;2022-10-29T04:25:55;7.67;;;4.13;;
11960;SDS011;6040;49.358;11.140;2022-10-29T04:28:22;11.70;;;6.63;;
11960;SDS011;6040;49.358;11.140;2022-10-29T04:30:50;10.17;;;6.57;;
11960;SDS011;6040;49.358;11.140;2022-10-29T04:33:17;12.40;;;7.57;;
11960;SDS011;6040;49.358;11.140;2022-10-29T04:35:51;17.27;;;8.07;;
11960;SDS011;6040;49.358;11.140;2022-10-29T04:38:18;10.70;;;7.27;;
11960;SDS011;6040;49.358;11.140;2022-10-29T04:40:45;9.40;;;6.77;;
11960;SDS011;6040;49.358;11.140;2022-10-29T04:43:12;12.60;;;6.10;;
11960;SDS011;6040;49.358;11.140;2022-10-29T04:45:39;8.83;;;5.90;;
11960;SDS011;6040;49.358;11.140;2022-10-29T04:48:07;9.60;;;5.07;;
11960;SDS011;6040;49.358;11.140;2022-10-29T04:50:35;7.80;;;5.17;;
11960;SDS011;6040;49.358;11.140;2022-10-29T04:53:05;8.90;;;5.00;;
11960;SDS011;6040;49.358;11.140;2022-10-29T04:55:34;10.33;;;4.50;;
11960;SDS011;6040;49.358;11.140;2022-10-29T04:58:01;8.87;;;3.50;;
11960;SDS011;6040;49.358;11.140;2022-10-29T05:00:28;9.33;;;3.33;;
11960;SDS011;6040;49.358;11.140;2022-10-29T05:02:56;8.70;;;3.40;;
11960;SDS011;6040;49.358;11.140;2022-10-29T05:05:23;9.97;;;3.57;;
11960;SDS011;6040;49.358;11.140;2022-10-29T05:07:54;5.43;;;3.50;;
11960;SDS011;6040;49.358;11.140;2022-10-29T05:10:23;4.43;;;3.00;;
11960;SDS011;6040;49.358;11.140;2022-10-29T05:12:54;7.63;;;3.30;;
11960;SDS011;6040;49.358;11.140;2022-10-29T05:15:22;7.40;;;3.43;;
11960;SDS011;6040;49.358;11.140;2022-10-29T05:17:49;7.53;;;3.30;;
11960;SDS011;6040;49.358;11.140;2022-10-29T05:20:16;4.93;;;3.00;;
11960;SDS011;6040;49.358;11.140;2022-10-29T05:22:43;4.93;;;2.90;;
11960;SDS011;6040;49.358;11.140;2022-10-29T05:25:10;8.20;;;3.17;;
11960;SDS011;6040;49.358;11.140;2022-10-29T05:27:39;4.70;;;2.80;;
11960;SDS011;6040;49.358;11.140;2022-10-29T05:30:06;3.40;;;2.70;;
11960;SDS011;6040;49.358;11.140;2022-10-29T05:32:34;3.80;;;3.10;;
11960;SDS011;6040;49.358;11.140;2022-10-29T05:35:01;9.70;;;3.70;;
11960;SDS011;6040;49.358;11.140;2022-10-29T05:37:28;7.00;;;3.63;;
11960;SDS011;6040;49.358;11.140;2022-10-29T05:39:55;8.60;;;3.93;;
11960;SDS011;6040;49.358;11.140;2022-10-29T05:42:22;7.97;;;3.53;;
11960;SDS011;6040;49.358;11.140;2022-10-29T05:44:51;4.87;;;3.10;;
11960;SDS011;6040;49.358;11.140;2022-10-29T05:47:18;9.87;;;3.10;;
11960;SDS011;6040;49.358;11.140;2022-10-29T05:49:45;6.50;;;3.00;;
11960;SDS011;6040;49.358;11.140;2022-10-29T05:52:12;7.27;;;3.50;;
11960;SDS011;6040;49.358;11.140;2022-10-29T05:54:39;6.97;;;3.20;;
11960;SDS011;6040;49.358;11.140;2022-10-29T05:57:06;8.53;;;3.93;;
11960;SDS011;6040;49.358;11.140;2022-10-29T05:59:33;10.47;;;4.47;;
11960;SDS011;6040;49.358;11.140;2022-10-29T06:02:02;10.50;;;4.90;;
11960;SDS011;6040;49.358;11.140;2022-10-29T06:04:29;12.20;;;5.10;;
11960;SDS011;6040;49.358;11.140;2022-10-29T06:06:56;13.43;;;4.80;;
11960;SDS011;6040;49.358;11.140;2022-10-29T06:09:23;7.77;;;4.67;;
11960;SDS011;6040;49.358;11.140;2022-10-29T06:11:50;6.20;;;4.30;;
11960;SDS011;6040;49.358;11.140;2022-10-29T06:14:17;8.57;;;4.53;;
11960;SDS011;6040;49.358;11.140;2022-10-29T06:16:44;5.87;;;3.97;;
11960;SDS011;6040;49.358;11.140;2022-10-29T06:19:13;8.00;;;3.70;;
11960;SDS011;6040;49.358;11.140;2022-10-29T06:21:40;5.00;;;3.83;;
11960;SDS011;6040;49.358;11.140;2022-10-29T06:24:07;15.40;;;4.80;;
11960;SDS011;6040;49.358;11.140;2022-10-29T06:26:34;12.53;;;4.57;;
11960;SDS011;6040;49.358;11.140;2022-10-29T06:29:02;8.07;;;3.80;;
11960;SDS011;6040;49.358;11.140;2022-10-29T06:31:29;6.57;;;3.60;;
11960;SDS011;6040;49.358;11.140;2022-10-29T06:33:56;8.30;;;3.87;;
11960;SDS011;6040;49.358;11.140;2022-10-29T06:36:25;7.90;;;4.50;;
11960;SDS011;6040;49.358;11.140;2022-10-29T06:38:52;8.63;;;4.20;;
11960;SDS011;6040;49.358;11.140;2022-10-29T06:41:19;6.57;;;3.43;;
11960;SDS011;6040;49.358;11.140;2022-10-29T06:43:49;11.20;;;3.57;;
11960;SDS011;6040;49.358;11.140;2022-10-29T06:46:16;9.37;;;3.90;;
11960;SDS011;6040;49.358;11.140;2022-10-29T06:48:43;6.33;;;3.90;;
11960;SDS011;6040;49.358;11.140;2022-10-29T06:51:09;3.50;;;3.10;;
11960;SDS011;6040;49.358;11.140;2022-10-29T06:53:38;7.93;;;3.40;;
11960;SDS011;6040;49.358;11.140;2022-10-29T06:56:04;7.00;;;4.27;;
11960;SDS011;6040;49.358;11.140;2022-10-29T06:58:32;9.00;;;3.33;;
11960;SDS011;6040;49.358;11.140;2022-10-29T07:00:58;9.57;;;3.40;;
11960;SDS011;6040;49.358;11.140;2022-10-29T07:03:26;8.20;;;3.30;;
11960;SDS011;6040;49.358;11.140;2022-10-29T07:05:56;7.10;;;3.63;;
11960;SDS011;6040;49.358;11.140;2022-10-29T07:08:23;6.13;;;3.23;;
11960;SDS011;6040;49.358;11.140;2022-10-29T07:10:52;3.93;;;3.33;;
11960;SDS011;6040;49.358;11.140;2022-10-29T07:13:19;6.87;;;3.70;;
11960;SDS011;6040;49.358;11.140;2022-10-29T07:15:46;9.70;;;4.57;;
11960;SDS011;6040;49.358;11.140;2022-10-29T07:18:13;7.33;;;4.47;;
11960;SDS011;6040;49.358;11.140;2022-10-29T07:20:41;13.93;;;4.87;;
11960;SDS011;6040;49.358;11.140;2022-10-29T07:23:09;11.53;;;4.87;;
11960;SDS011;6040;49.358;11.140;2022-10-29T07:25:38;10.23;;;5.30;;
11960;SDS011;6040;49.358;11.140;2022-10-29T07:28:07;11.80;;;5.53;;
11960;SDS011;6040;49.358;11.140;2022-10-29T07:30:37;11.03;;;6.60;;
11960;SDS011;6040;49.358;11.140;2022-10-29T07:33:04;12.97;;;6.97;;
11960;SDS011;6040;49.358;11.140;2022-10-29T07:35:31;10.90;;;6.13;;
11960;SDS011;6040;49.358;11.140;2022-10-29T07:37:59;9.70;;;5.80;;
11960;SDS011;6040;49.358;11.140;2022-10-29T07:40:26;10.53;;;6.60;;
11960;SDS011;6040;49.358;11.140;2022-10-29T07:42:53;9.13;;;6.10;;
11960;SDS011;6040;49.358;11.140;2022-10-29T07:45:22;13.17;;;6.00;;
11960;SDS011;6040;49.358;11.140;2022-10-29T07:47:50;9.60;;;6.33;;
11960;SDS011;6040;49.358;11.140;2022-10-29T07:50:23;11.77;;;5.60;;
11960;SDS011;6040;49.358;11.140;2022-10-29T07:52:50;9.13;;;5.40;;
11960;SDS011;6040;49.358;11.140;2022-10-29T07:55:17;12.13;;;4.90;;
11960;SDS011;6040;49.358;11.140;2022-10-29T07:57:44;8.83;;;4.80;;
11960;SDS011;6040;49.358;11.140;2022-10-29T08:00:11;11.50;;;4.50;;
11960;SDS011;6040;49.358;11.140;2022-10-29T08:02:40;8.63;;;4.17;;
11960;SDS011;6040;49.358;11.140;2022-10-29T08:05:07;8.30;;;4.80;;
11960;SDS011;6040;49.358;11.140;2022-10-29T08:07:34;10.37;;;4.50;;
11960;SDS011;6040;49.358;11.140;2022-10-29T08:10:01;11.03;;;4.30;;
11960;SDS011;6040;49.358;11.140;2022-10-29T08:12:28;28.97;;;6.40;;
11960;SDS011;6040;49.358;11.140;2022-10-29T08:14:54;25.80;;;7.00;;
11960;SDS011;6040;49.358;11.140;2022-10-29T08:17:21;23.20;;;5.60;;
11960;SDS011;6040;49.358;11.140;2022-10-29T08:19:49;23.90;;;5.77;;
11960;SDS011;6040;49.358;11.140;2022-10-29T08:22:16;11.70;;;5.27;;
11960;SDS011;6040;49.358;11.140;2022-10-29T08:24:43;9.83;;;4.80;;
11960;SDS011;6040;49.358;11.140;2022-10-29T08:27:09;8.40;;;4.77;;
11960;SDS011;6040;49.358;11.140;2022-10-29T08:29:36;11.43;;;5.37;;
11960;SDS011;6040;49.358;11.140;2022-10-29T08:32:03;9.83;;;5.13;;
11960;SDS011;6040;49.358;11.140;2022-10-29T08:34:30;12.33;;;4.93;;
11960;SDS011;6040;49.358;11.140;2022-10-29T08:36:58;10.00;;;4.90;;
11960;SDS011;6040;49.358;11.140;2022-10-29T08:39:25;11.77;;;4.33;;
11960;SDS011;6040;49.358;11.140;2022-10-29T08:41:54;17.03;;;4.73;;
11960;SDS011;6040;49.358;11.140;2022-10-29T08:44:30;11.93;;;4.60;;
11960;SDS011;6040;49.358;11.140;2022-10-29T08:47:14;11.37;;;3.90;;
11960;SDS011;6040;49.358;11.140;2022-10-29T08:49:45;10.53;;;3.67;;
11960;SDS011;6040;49.358;11.140;2022-10-29T08:52:18;11.63;;;3.97;;
11960;SDS011;6040;49.358;11.140;2022-10-29T08:54:50;21.43;;;4.23;;
11960;SDS011;6040;49.358;11.140;2022-10-29T08:57:23;6.97;;;4.07;;
11960;SDS011;6040;49.358;11.140;2022-10-29T08:59:57;11.60;;;4.33;;
11960;SDS011;6040;49.358;11.140;2022-10-29T09:02:28;5.60;;;3.70;;
11960;SDS011;6040;49.358;11.140;2022-10-29T09:04:55;7.80;;;4.10;;
11960;SDS011;6040;49.358;11.140;2022-10-29T09:10:10;6.43;;;3.53;;
11960;SDS011;6040;49.358;11.140;2022-10-29T09:12:57;11.87;;;3.47;;
11960;SDS011;6040;49.358;11.140;2022-10-29T09:15:30;6.80;;;3.57;;
11960;SDS011;6040;49.358;11.140;2022-10-29T09:18:10;7.70;;;3.53;;
11960;SDS011;6040;49.358;11.140;2022-10-29T09:20:50;9.57;;;3.60;;
11960;SDS011;6040;49.358;11.140;2022-10-29T09:23:26;6.37;;;3.53;;
11960;SDS011;6040;49.358;11.140;2022-10-29T09:26:09;7.57;;;3.27;;
11960;SDS011;6040;49.358;11.140;2022-10-29T09:28:42;7.77;;;3.53;;
11960;SDS011;6040;49.358;11.140;2022-10-29T09:31:21;6.03;;;3.40;;
11960;SDS011;6040;49.358;11.140;2022-10-29T09:33:55;6.93;;;3.33;;
11960;SDS011;6040;49.358;11.140;2022-10-29T09:36:26;20.93;;;4.60;;
11960;SDS011;6040;49.358;11.140;2022-10-29T09:38:56;14.53;;;4.67;;
11960;SDS011;6040;49.358;11.140;2022-10-29T09:41:29;11.53;;;4.70;;
11960;SDS011;6040;49.358;11.140;2022-10-29T09:43:59;11.40;;;5.17;;
11960;SDS011;6040;49.358;11.140;2022-10-29T09:46:33;17.40;;;6.60;;
11960;SDS011;6040;49.358;11.140;2022-10-29T09:49:07;7.20;;;3.90;;
11960;SDS011;6040;49.358;11.140;2022-10-29T09:51:48;17.07;;;7.17;;
11960;SDS011;6040;49.358;11.140;2022-10-29T09:54:18;14.60;;;5.37;;
11960;SDS011;6040;49.358;11.140;2022-10-29T09:56:47;11.90;;;5.90;;
11960;SDS011;6040;49.358;11.140;2022-10-29T09:59:16;7.67;;;3.20;;
11960;SDS011;6040;49.358;11.140;2022-10-29T10:01:46;25.97;;;8.53;;
11960;SDS011;6040;49.358;11.140;2022-10-29T10:04:16;9.30;;;4.20;;
11960;SDS011;6040;49.358;11.140;2022-10-29T10:07:03;14.83;;;3.70;;
11960;SDS011;6040;49.358;11.140;2022-10-29T10:12:19;10.73;;;3.17;;
11960;SDS011;6040;49.358;11.140;2022-10-29T10:14:49;8.57;;;3.10;;
11960;SDS011;6040;49.358;11.140;2022-10-29T10:17:27;8.83;;;3.07;;
11960;SDS011;6040;49.358;11.140;2022-10-29T10:20:26;6.80;;;2.90;;
11960;SDS011;6040;49.358;11.140;2022-10-29T10:22:58;8.20;;;3.50;;
11960;SDS011;6040;49.358;11.140;2022-10-29T10:25:33;9.90;;;3.60;;
11960;SDS011;6040;49.358;11.140;2022-10-29T10:28:04;6.40;;;3.23;;
11960;SDS011;6040;49.358;11.140;2022-10-29T10:30:42;5.27;;;3.37;;
11960;SDS011;6040;49.358;11.140;2022-10-29T10:33:22;8.93;;;3.30;;
11960;SDS011;6040;49.358;11.140;2022-10-29T10:35:50;8.60;;;3.37;;
11960;SDS011;6040;49.358;11.140;2022-10-29T10:38:18;8.73;;;3.40;;
11960;SDS011;6040;49.358;11.140;2022-10-29T10:40:52;7.30;;;3.60;;
11960;SDS011;6040;49.358;11.140;2022-10-29T10:43:22;5.87;;;3.27;;
11960;SDS011;6040;49.358;11.140;2022-10-29T10:45:51;10.23;;;3.70;;
11960;SDS011;6040;49.358;11.140;2022-10-29T10:48:21;7.03;;;3.63;;
11960;SDS011;6040;49.358;11.140;2022-10-29T10:50:50;6.87;;;3.73;;
11960;SDS011;6040;49.358;11.140;2022-10-29T10:53:33;7.20;;;3.87;;
11960;SDS011;6040;49.358;11.140;2022-10-29T10:56:00;7.47;;;3.70;;
11960;SDS011;6040;49.358;11.140;2022-10-29T10:58:30;8.97;;;3.47;;
11960;SDS011;6040;49.358;11.140;2022-10-29T11:01:04;7.60;;;4.10;;
11960;SDS011;6040;49.358;11.140;2022-10-29T11:03:44;11.97;;;3.87;;
11960;SDS011;6040;49.358;11.140;2022-10-29T11:06:13;7.33;;;3.60;;
11960;SDS011;6040;49.358;11.140;2022-10-29T11:08:44;9.60;;;3.90;;
11960;SDS011;6040;49.358;11.140;2022-10-29T11:11:16;15.53;;;4.63;;
11960;SDS011;6040;49.358;11.140;2022-10-29T11:13:48;13.13;;;4.63;;
11960;SDS011;6040;49.358;11.140;2022-10-29T11:16:17;10.53;;;4.40;;
11960;SDS011;6040;49.358;11.140;2022-10-29T11:18:52;7.57;;;4.33;;
11960;SDS011;6040;49.358;11.140;2022-10-29T11:21:25;9.77;;;4.17;;
11960;SDS011;6040;49.358;11.140;2022-10-29T11:23:58;10.17;;;4.90;;
11960;SDS011;6040;49.358;11.140;2022-10-29T11:26:30;6.97;;;4.50;;
11960;SDS011;6040;49.358;11.140;2022-10-29T11:29:04;13.03;;;4.80;;
11960;SDS011;6040;49.358;11.140;2022-10-29T11:31:43;12.90;;;5.17;;
11960;SDS011;6040;49.358;11.140;2022-10-29T11:34:18;10.33;;;4.30;;
11960;SDS011;6040;49.358;11.140;2022-10-29T11:36:50;10.13;;;4.53;;
11960;SDS011;6040;49.358;11.140;2022-10-29T11:39:25;10.23;;;4.47;;
11960;SDS011;6040;49.358;11.140;2022-10-29T11:41:56;9.93;;;4.53;;
11960;SDS011;6040;49.358;11.140;2022-10-29T11:44:26;11.73;;;4.97;;
11960;SDS011;6040;49.358;11.140;2022-10-29T11:47:01;11.17;;;4.53;;
11960;SDS011;6040;49.358;11.140;2022-10-29T11:49:45;9.23;;;5.00;;
11960;SDS011;6040;49.358;11.140;2022-10-29T11:52:26;9.90;;;4.60;;
11960;SDS011;6040;49.358;11.140;2022-10-29T11:54:58;9.40;;;4.83;;
11960;SDS011;6040;49.358;11.140;2022-10-29T11:57:35;14.00;;;4.87;;
11960;SDS011;6040;49.358;11.140;2022-10-29T12:00:11;10.37;;;4.93;;
11960;SDS011;6040;49.358;11.140;2022-10-29T12:02:45;5.73;;;4.53;;
11960;SDS011;6040;49.358;11.140;2022-10-29T12:05:24;8.17;;;4.80;;
11960;SDS011;6040;49.358;11.140;2022-10-29T12:08:05;9.03;;;4.40;;
11960;SDS011;6040;49.358;11.140;2022-10-29T12:10:45;9.77;;;4.07;;
11960;SDS011;6040;49.358;11.140;2022-10-29T12:13:18;10.20;;;4.20;;
11960;SDS011;6040;49.358;11.140;2022-10-29T12:15:59;7.50;;;3.83;;
11960;SDS011;6040;49.358;11.140;2022-10-29T12:18:35;10.67;;;4.60;;
11960;SDS011;6040;49.358;11.140;2022-10-29T12:21:11;7.37;;;4.17;;
11960;SDS011;6040;49.358;11.140;2022-10-29T12:23:46;7.50;;;3.97;;
11960;SDS011;6040;49.358;11.140;2022-10-29T12:26:20;9.93;;;3.83;;
11960;SDS011;6040;49.358;11.140;2022-10-29T12:28:52;8.07;;;3.60;;
11960;SDS011;6040;49.358;11.140;2022-10-29T12:31:27;5.90;;;3.60;;
11960;SDS011;6040;49.358;11.140;2022-10-29T12:34:00;6.93;;;3.57;;
11960;SDS011;6040;49.358;11.140;2022-10-29T12:36:33;9.50;;;3.83;;
11960;SDS011;6040;49.358;11.140;2022-10-29T12:39:04;6.27;;;3.50;;
11960;SDS011;6040;49.358;11.140;2022-10-29T12:41:40;8.47;;;3.50;;
11960;SDS011;6040;49.358;11.140;2022-10-29T12:44:12;8.90;;;3.53;;
11960;SDS011;6040;49.358;11.140;2022-10-29T12:46:47;9.23;;;3.33;;
11960;SDS011;6040;49.358;11.140;2022-10-29T12:49:23;6.63;;;3.40;;
11960;SDS011;6040;49.358;11.140;2022-10-29T12:52:03;7.13;;;3.70;;
11960;SDS011;6040;49.358;11.140;2022-10-29T12:54:37;8.80;;;3.50;;
11960;SDS011;6040;49.358;11.140;2022-10-29T12:57:17;5.90;;;3.57;;
11960;SDS011;6040;49.358;11.140;2022-10-29T12:59:52;7.60;;;3.20;;
11960;SDS011;6040;49.358;11.140;2022-10-29T13:02:27;7.83;;;3.57;;
11960;SDS011;6040;49.358;11.140;2022-10-29T13:05:16;7.33;;;3.37;;
11960;SDS011;6040;49.358;11.140;2022-10-29T13:10:48;10.10;;;3.53;;
11960;SDS011;6040;49.358;11.140;2022-10-29T13:13:22;5.00;;;3.13;;
11960;SDS011;6040;49.358;11.140;2022-10-29T13:16:18;21.53;;;6.60;;
11960;SDS011;6040;49.358;11.140;2022-10-29T13:19:07;7.33;;;3.23;;
11960;SDS011;6040;49.358;11.140;2022-10-29T13:21:56;7.00;;;3.03;;
11960;SDS011;6040;49.358;11.140;2022-10-29T13:24:27;8.30;;;3.70;;
11960;SDS011;6040;49.358;11.140;2022-10-29T13:26:56;9.47;;;3.67;;
11960;SDS011;6040;49.358;11.140;2022-10-29T13:29:46;7.00;;;3.27;;
11960;SDS011;6040;49.358;11.140;2022-10-29T13:38:13;7.93;;;3.53;;
11960;SDS011;6040;49.358;11.140;2022-10-29T13:43:39;9.97;;;3.80;;
11960;SDS011;6040;49.358;11.140;2022-10-29T13:49:11;11.17;;;3.70;;
11960;SDS011;6040;49.358;11.140;2022-10-29T13:51:48;10.67;;;3.80;;
11960;SDS011;6040;49.358;11.140;2022-10-29T13:54:20;10.43;;;4.07;;
11960;SDS011;6040;49.358;11.140;2022-10-29T13:56:52;8.20;;;3.70;;
11960;SDS011;6040;49.358;11.140;2022-10-29T13:59:24;7.70;;;3.17;;
11960;SDS011;6040;49.358;11.140;2022-10-29T14:02:00;8.27;;;3.90;;
11960;SDS011;6040;49.358;11.140;2022-10-29T14:04:37;10.23;;;3.63;;
11960;SDS011;6040;49.358;11.140;2022-10-29T14:07:20;7.73;;;3.77;;
11960;SDS011;6040;49.358;11.140;2022-10-29T14:09:55;11.10;;;3.97;;
11960;SDS011;6040;49.358;11.140;2022-10-29T14:12:29;8.67;;;3.83;;
11960;SDS011;6040;49.358;11.140;2022-10-29T14:14:59;12.37;;;3.40;;
11960;SDS011;6040;49.358;11.140;2022-10-29T14:17:30;15.73;;;6.03;;
11960;SDS011;6040;49.358;11.140;2022-10-29T14:19:57;9.30;;;3.90;;
11960;SDS011;6040;49.358;11.140;2022-10-29T14:22:28;10.67;;;4.00;;
11960;SDS011;6040;49.358;11.140;2022-10-29T14:24:59;8.53;;;3.10;;
11960;SDS011;6040;49.358;11.140;2022-10-29T14:27:27;7.87;;;3.90;;
11960;SDS011;6040;49.358;11.140;2022-10-29T14:32:37;8.30;;;4.17;;
11960;SDS011;6040;49.358;11.140;2022-10-29T14:35:05;10.27;;;4.00;;
11960;SDS011;6040;49.358;11.140;2022-10-29T14:37:32;11.27;;;4.87;;
11960;SDS011;6040;49.358;11.140;2022-10-29T14:40:05;15.43;;;3.80;;
11960;SDS011;6040;49.358;11.140;2022-10-29T14:42:42;12.60;;;5.10;;
11960;SDS011;6040;49.358;11.140;2022-10-29T14:45:16;10.70;;;3.90;;
11960;SDS011;6040;49.358;11.140;2022-10-29T14:47:47;9.07;;;4.33;;
11960;SDS011;6040;49.358;11.140;2022-10-29T14:50:17;10.47;;;3.77;;
11960;SDS011;6040;49.358;11.140;2022-10-29T14:52:46;11.90;;;3.87;;
11960;SDS011;6040;49.358;11.140;2022-10-29T14:55:19;14.43;;;4.00;;
11960;SDS011;6040;49.358;11.140;2022-10-29T14:57:48;10.63;;;3.90;;
11960;SDS011;6040;49.358;11.140;2022-10-29T15:00:24;9.07;;;3.70;;
11960;SDS011;6040;49.358;11.140;2022-10-29T15:02:54;10.90;;;3.97;;
11960;SDS011;6040;49.358;11.140;2022-10-29T15:05:22;6.80;;;3.50;;
11960;SDS011;6040;49.358;11.140;2022-10-29T15:07:50;12.30;;;3.43;;
11960;SDS011;6040;49.358;11.140;2022-10-29T15:10:20;12.80;;;4.20;;
11960;SDS011;6040;49.358;11.140;2022-10-29T15:12:48;13.07;;;3.90;;
11960;SDS011;6040;49.358;11.140;2022-10-29T15:15:23;11.10;;;3.80;;
11960;SDS011;6040;49.358;11.140;2022-10-29T15:17:53;9.90;;;4.17;;
11960;SDS011;6040;49.358;11.140;2022-10-29T15:20:24;10.53;;;3.73;;
11960;SDS011;6040;49.358;11.140;2022-10-29T15:22:55;7.40;;;3.63;;
11960;SDS011;6040;49.358;11.140;2022-10-29T15:25:26;6.67;;;3.40;;
11960;SDS011;6040;49.358;11.140;2022-10-29T15:27:55;10.43;;;3.50;;
11960;SDS011;6040;49.358;11.140;2022-10-29T15:30:27;9.03;;;3.87;;
11960;SDS011;6040;49.358;11.140;2022-10-29T15:32:57;8.93;;;4.20;;
11960;SDS011;6040;49.358;11.140;2022-10-29T15:35:25;15.37;;;4.40;;